Lambton Shores, Canada
Current Conditions -  °F | °C
As of 7:00 PM on Friday 28 Nov 2014 (Local Time) from CYZR Reporting Station
Light Snow Light Snow  
Wind Chill: 17°   Ceiling: 4600
Heat Index: 25°   Visibility: 9mi
Dew Point: 19°   Wind: 7mph
Humidity: 80%   Direction: 170°S
Pressure: 30.17"   Gusts: NA
Location:  43.24°N, 81.87°W
Report Text: CYZR 290000Z AUTO 17006KT 9SM -SN SCT032 BKN046 OVC070 M04/M07 A3017 RMK SLP228
Loading
Personal Weather Stations






























Interactive Weather Map New forecast layout! Learn more

10-Day Weather Forecast

Advertisements
Track Severe Weather on mobile